Time;durP1;ratioP1;P1;durP2;ratioP2;P2;SDS_P1;SDS_P2;PMS_P1;PMS_P2;Temp;Humidity;BMP_temperature;BMP_pressure;BME280_temperature;BME280_humidity;BME280_pressure;Samples;Min_cycle;Max_cycle;Signal;HPM_P1;HPM_P2
2021/09/29 00:01:32;;;;;;;10.65;5.68;;;;;;;12.61;90.40;101496.38;10624457;27;20528;-79
2021/09/29 00:06:34;;;;;;;9.88;4.90;;;;;;;12.63;90.55;101482.56;10660602;27;20409;-80
2021/09/29 00:11:35;;;;;;;8.57;4.82;;;;;;;12.70;90.24;101479.19;10631671;27;20055;-79
2021/09/29 00:16:37;;;;;;;9.50;4.28;;;;;;;12.70;89.83;101474.00;10624330;27;20043;-79
2021/09/29 00:21:39;;;;;;;7.55;4.15;;;;;;;12.75;89.35;101471.50;10644392;27;20047;-79
2021/09/29 00:26:40;;;;;;;7.35;4.82;;;;;;;12.67;89.66;101454.94;10637236;27;20042;-80
2021/09/29 00:31:42;;;;;;;10.15;5.00;;;;;;;12.68;88.85;101448.88;10637129;27;20057;-80
2021/09/29 00:36:45;;;;;;;12.98;5.80;;;;;;;12.69;88.67;101448.03;10665593;27;20058;-79
2021/09/29 00:41:47;;;;;;;8.98;4.90;;;;;;;12.58;89.17;101440.06;10646964;27;20054;-78
2021/09/29 00:46:49;;;;;;;9.18;5.70;;;;;;;12.53;90.23;101427.88;10635027;27;20043;-79
2021/09/29 00:51:52;;;;;;;8.85;5.03;;;;;;;12.46;90.79;101424.31;10629891;27;20387;-79
2021/09/29 00:56:54;;;;;;;6.35;4.80;;;;;;;12.47;90.61;101418.25;10635736;27;20039;-78
2021/09/29 01:01:56;;;;;;;11.23;5.22;;;;;;;12.58;89.69;101421.03;10632809;27;20052;-79
2021/09/29 01:07:10;;;;;;;9.30;6.15;;;;;;;12.54;89.82;101412.34;10627368;27;20043;-80
2021/09/29 01:12:11;;;;;;;10.07;5.32;;;;;;;12.41;90.32;101397.41;10650146;27;20069;-80
2021/09/29 01:17:17;;;;;;;6.68;5.07;;;;;;;12.35;90.86;101394.69;10646966;27;20083;-80
2021/09/29 01:22:25;;;;;;;9.03;5.33;;;;;;;12.23;91.56;101382.41;10637893;27;20104;-77
2021/09/29 01:27:29;;;;;;;8.40;5.43;;;;;;;12.18;91.62;101371.94;10627471;27;20047;-79
2021/09/29 01:32:31;;;;;;;7.07;5.80;;;;;;;12.14;92.05;101369.31;10621773;27;20059;-79
2021/09/29 01:37:33;;;;;;;8.95;5.78;;;;;;;12.06;93.24;101361.38;10622249;28;20474;-79
2021/09/29 01:42:34;;;;;;;9.63;5.43;;;;;;;11.94;93.58;101356.84;10622953;28;20069;-78
2021/09/29 01:47:36;;;;;;;7.68;5.18;;;;;;;11.87;93.70;101347.22;10593903;28;20414;-80
2021/09/29 01:52:43;;;;;;;9.18;5.93;;;;;;;11.78;94.34;101347.00;10604532;28;20447;-79
2021/09/29 01:57:47;;;;;;;9.63;5.57;;;;;;;11.82;94.44;101335.91;10622383;28;20092;-79
2021/09/29 02:02:49;;;;;;;8.57;5.80;;;;;;;11.77;94.05;101337.50;10605682;27;20047;-79
2021/09/29 02:07:51;;;;;;;13.05;6.05;;;;;;;11.74;94.67;101319.31;10611381;27;20497;-80
2021/09/29 02:12:52;;;;;;;10.60;6.53;;;;;;;11.68;94.79;101320.09;10629757;27;20561;-80
2021/09/29 02:17:54;;;;;;;11.38;5.57;;;;;;;11.65;95.29;101308.78;10610412;27;20085;-80
2021/09/29 02:22:56;;;;;;;10.70;6.05;;;;;;;11.67;94.85;101297.56;10629348;27;20058;-80
2021/09/29 02:27:57;;;;;;;14.10;7.15;;;;;;;11.52;96.20;101304.22;10610904;27;20108;-80
2021/09/29 02:32:59;;;;;;;9.82;6.28;;;;;;;11.49;96.60;101291.19;10614660;27;20069;-80
2021/09/29 02:38:00;;;;;;;13.88;7.55;;;;;;;11.47;95.83;101278.22;10671168;27;20039;-80
2021/09/29 02:43:02;;;;;;;15.63;6.70;;;;;;;11.49;95.79;101278.25;10652437;27;20490;-79
2021/09/29 02:48:04;;;;;;;9.50;6.43;;;;;;;11.45;96.26;101264.34;10671387;27;20129;-80
2021/09/29 02:53:05;;;;;;;8.65;5.85;;;;;;;11.44;96.38;101265.19;10652021;27;20054;-80
2021/09/29 02:58:10;;;;;;;8.00;5.78;;;;;;;11.45;96.42;101255.72;10645459;27;20046;-80
2021/09/29 03:03:11;;;;;;;9.40;5.60;;;;;;;11.41;96.47;101257.41;10670895;27;20054;-79
2021/09/29 03:08:13;;;;;;;12.20;6.20;;;;;;;11.48;95.97;101248.00;10651715;27;20481;-80
2021/09/29 03:13:15;;;;;;;7.72;5.43;;;;;;;11.55;95.45;101240.34;10669962;27;20489;-80
2021/09/29 03:18:17;;;;;;;9.57;6.65;;;;;;;11.59;95.58;101236.09;10669035;27;20058;-79
2021/09/29 03:23:19;;;;;;;10.13;5.97;;;;;;;11.59;95.70;101230.94;10669632;27;20046;-78
2021/09/29 03:28:21;;;;;;;8.45;6.40;;;;;;;11.56;95.73;101221.38;10669936;27;20050;-79
2021/09/29 03:33:22;;;;;;;12.07;5.93;;;;;;;11.61;95.35;101217.13;10643100;27;20078;-80
2021/09/29 03:38:24;;;;;;;7.70;6.18;;;;;;;11.61;95.48;101209.34;10594507;27;20045;-79
2021/09/29 03:43:26;;;;;;;8.63;5.60;;;;;;;11.68;95.74;101205.13;10607876;27;20051;-79
2021/09/29 03:48:27;;;;;;;12.43;6.93;;;;;;;11.70;95.53;101198.28;10607688;27;20051;-78
2021/09/29 03:53:29;;;;;;;11.68;6.30;;;;;;;11.58;98.66;101195.50;10625453;27;20051;-78
2021/09/29 03:58:30;;;;;;;13.27;6.28;;;;;;;11.53;100.00;101179.00;10625153;27;20077;-77
2021/09/29 04:03:33;;;;;;;11.68;6.88;;;;;;;11.54;100.00;101186.78;10625389;27;20043;-76
2021/09/29 04:08:34;;;;;;;9.02;6.47;;;;;;;11.55;99.72;101177.28;10606157;27;20096;-77
2021/09/29 04:13:36;;;;;;;11.00;6.68;;;;;;;11.51;100.00;101184.13;10624489;27;20069;-76
2021/09/29 04:18:38;;;;;;;10.40;6.35;;;;;;;11.50;100.00;101182.41;10624332;27;20047;-76
2021/09/29 04:23:41;;;;;;;11.07;6.45;;;;;;;11.47;100.00;101187.53;10606134;27;20051;-77
2021/09/29 04:28:42;;;;;;;12.10;6.32;;;;;;;11.49;100.00;101172.88;10622878;27;20043;-77
2021/09/29 04:33:44;;;;;;;12.25;6.22;;;;;;;11.47;100.00;101178.91;10597522;27;20050;-77
2021/09/29 04:38:45;;;;;;;14.05;7.43;;;;;;;11.55;99.47;101175.56;10623568;27;20051;-77
2021/09/29 04:43:47;;;;;;;9.07;6.05;;;;;;;11.48;100.00;101176.34;10622757;27;20046;-77
2021/09/29 04:48:48;;;;;;;8.95;6.05;;;;;;;11.50;99.24;101174.63;10620051;27;20089;-77
2021/09/29 04:53:50;;;;;;;13.60;6.85;;;;;;;11.59;98.57;101171.31;10624111;28;20062;-77
2021/09/29 04:58:52;;;;;;;8.27;5.47;;;;;;;11.57;99.80;101175.59;10621607;28;20050;-77
2021/09/29 05:03:54;;;;;;;11.68;5.80;;;;;;;11.60;99.79;101176.53;10600362;28;20043;-77
2021/09/29 05:08:56;;;;;;;9.57;5.80;;;;;;;11.64;100.00;101169.69;10621945;28;20051;-78
2021/09/29 05:13:57;;;;;;;11.50;4.88;;;;;;;11.62;100.00;101166.16;10619264;28;20054;-77
2021/09/29 05:18:59;;;;;;;11.73;5.50;;;;;;;11.58;100.00;101154.03;10621773;28;20469;-78
2021/09/29 05:24:01;;;;;;;10.65;5.45;;;;;;;11.56;100.00;101158.31;10603998;28;20048;-78
2021/09/29 05:29:06;;;;;;;9.68;4.97;;;;;;;11.49;100.00;101146.97;10617077;28;20051;-78
2021/09/29 05:34:07;;;;;;;8.13;4.78;;;;;;;11.44;100.00;101148.63;10621539;28;20054;-78
2021/09/29 05:39:09;;;;;;;11.32;6.25;;;;;;;11.37;100.00;101144.19;10608962;27;20050;-78
2021/09/29 05:44:10;;;;;;;10.75;6.05;;;;;;;11.35;100.00;101139.00;10611379;27;20051;-78
2021/09/29 05:49:12;;;;;;;7.93;4.97;;;;;;;11.38;100.00;101133.84;10609428;27;20047;-77
2021/09/29 05:54:14;;;;;;;10.73;4.47;;;;;;;11.43;100.00;101141.69;10604903;27;20055;-77
2021/09/29 05:59:16;;;;;;;9.93;5.50;;;;;;;11.40;100.00;101139.03;10627094;27;20047;-77
2021/09/29 06:04:18;;;;;;;9.75;5.28;;;;;;;11.43;100.00;101144.28;10626578;27;20062;-78
2021/09/29 06:09:20;;;;;;;13.05;5.00;;;;;;;11.48;100.00;101141.78;10610854;27;20039;-77
2021/09/29 06:14:22;;;;;;;6.53;4.80;;;;;;;11.48;100.00;101136.59;10608034;27;20059;-77
2021/09/29 06:19:24;;;;;;;12.70;5.05;;;;;;;11.45;100.00;101141.72;10629133;27;20050;-77
2021/09/29 06:24:25;;;;;;;10.10;5.55;;;;;;;11.36;100.00;101142.47;10609571;27;20069;-78
2021/09/29 06:29:27;;;;;;;7.90;4.97;;;;;;;11.38;100.00;101132.97;10627288;27;20055;-77
2021/09/29 06:34:29;;;;;;;18.25;6.72;;;;;;;11.40;100.00;101129.59;10627477;27;20456;-77
2021/09/29 06:39:31;;;;;;;10.38;5.10;;;;;;;11.37;100.00;101119.16;10627357;27;20503;-77
2021/09/29 06:44:33;;;;;;;6.20;4.63;;;;;;;11.46;100.00;101120.13;10626892;27;20051;-77
2021/09/29 06:49:35;;;;;;;7.88;4.32;;;;;;;11.47;100.00;101119.31;10626159;27;20058;-78
2021/09/29 06:54:37;;;;;;;4.68;3.55;;;;;;;11.48;100.00;101116.75;10608148;27;20146;-77
2021/09/29 06:59:39;;;;;;;7.72;3.95;;;;;;;11.54;100.00;101123.75;10625902;27;20043;-77
2021/09/29 07:04:45;;;;;;;9.20;4.15;;;;;;;11.59;100.00;101120.38;10623438;27;20096;-76
2021/09/29 07:09:46;;;;;;;7.90;3.63;;;;;;;11.68;100.00;101125.69;10608327;27;20449;-77
2021/09/29 07:14:48;;;;;;;8.45;4.13;;;;;;;11.63;100.00;101127.34;10607518;27;20517;-78
2021/09/29 07:19:55;;;;;;;5.53;3.47;;;;;;;11.58;100.00;101126.41;10625534;27;20047;-77
2021/09/29 07:24:56;;;;;;;8.73;3.67;;;;;;;11.52;100.00;101122.84;10607464;27;20053;-79
2021/09/29 07:29:58;;;;;;;8.20;3.30;;;;;;;11.53;100.00;101125.47;10621871;27;20039;-78
2021/09/29 07:34:59;;;;;;;7.32;3.63;;;;;;;11.38;100.00;101118.31;10624675;27;20050;-77
2021/09/29 07:40:01;;;;;;;4.85;3.88;;;;;;;11.45;100.00;101121.00;10629512;27;20058;-78
2021/09/29 07:45:08;;;;;;;15.40;5.55;;;;;;;11.50;100.00;101115.03;10649611;27;20112;-78
2021/09/29 07:50:12;;;;;;;7.70;4.90;;;;;;;11.48;100.00;101110.69;10647748;27;20096;-78
2021/09/29 07:55:14;;;;;;;6.35;4.13;;;;;;;11.46;100.00;101112.38;10602827;27;20415;-76
2021/09/29 08:00:17;;;;;;;10.80;4.15;;;;;;;11.51;100.00;101116.78;10600189;27;20100;-77
2021/09/29 08:05:20;;;;;;;7.22;4.68;;;;;;;11.63;100.00;101123.88;10602815;27;20051;-78
2021/09/29 08:10:22;;;;;;;6.50;3.50;;;;;;;11.64;100.00;101130.81;10618790;27;20075;-78
2021/09/29 08:15:27;;;;;;;4.30;3.90;;;;;;;11.65;100.00;101127.38;10637591;27;20097;-77
2021/09/29 08:20:33;;;;;;;4.18;3.33;;;;;;;11.60;100.00;101132.47;10623261;27;20043;-78
2021/09/29 08:31:01;;;;;;;5.43;3.83;;;;;;;11.64;100.00;101151.53;10622893;27;20615;-77
2021/09/29 08:36:16;;;;;;;5.95;4.15;;;;;;;11.70;100.00;101151.63;10639861;27;20058;-77
2021/09/29 08:41:43;;;;;;;4.13;3.38;;;;;;;11.72;100.00;101154.25;10664509;27;20047;-78
2021/09/29 08:47:03;;;;;;;4.82;3.47;;;;;;;11.72;100.00;101149.91;10665125;27;20046;-78
2021/09/29 09:18:49;;;;;;;10.07;5.30;;;;;;;11.62;100.00;101164.44;10673470;27;20058;-74
2021/09/29 09:23:51;;;;;;;4.38;2.60;;;;;;;11.41;100.00;101175.38;10672376;27;20050;-76
2021/09/29 09:29:08;;;;;;;4.55;2.60;;;;;;;11.34;100.00;101177.81;10672525;27;20046;-76
2021/09/29 09:34:10;;;;;;;2.47;2.15;;;;;;;11.27;100.00;101187.19;10638058;27;20050;-74
2021/09/29 09:39:16;;;;;;;2.83;2.40;;;;;;;11.23;100.00;101184.50;10605075;27;20055;-75
2021/09/29 09:44:22;;;;;;;2.67;2.47;;;;;;;11.07;100.00;101188.56;10611614;27;20077;-74
2021/09/29 09:49:24;;;;;;;3.77;2.97;;;;;;;11.11;100.00;101195.53;10629027;27;20561;-77
2021/09/29 09:54:37;;;;;;;3.33;3.03;;;;;;;11.13;100.00;101197.31;10610717;27;20043;-76
2021/09/29 09:59:46;;;;;;;2.67;2.45;;;;;;;11.18;100.00;101201.72;10610336;27;20066;-78
2021/09/29 10:04:48;;;;;;;3.28;2.88;;;;;;;11.10;100.00;101186.88;10629326;27;20091;-75
2021/09/29 10:10:01;;;;;;;3.05;2.53;;;;;;;10.99;100.00;101183.22;10610420;27;20047;-76
2021/09/29 10:26:12;;;;;;;4.38;3.50;;;;;;;11.09;100.00;101224.00;10627017;27;20461;-76
2021/09/29 10:36:40;;;;;;;4.45;3.15;;;;;;;11.05;100.00;101232.53;10659676;27;20569;-75
2021/09/29 10:47:17;;;;;;;4.40;2.65;;;;;;;10.98;100.00;101250.53;10667037;27;20057;-73
2021/09/29 10:52:33;;;;;;;2.28;2.08;;;;;;;10.96;100.00;101237.56;10667159;27;20047;-74
2021/09/29 11:30:05;;;;;;;2.75;0.95;;;;;;;10.54;100.00;101299.63;10667183;27;20047;-74
2021/09/29 11:35:16;;;;;;;6.38;2.83;;;;;;;10.44;100.00;101289.94;10642273;27;20573;-74
2021/09/29 12:13:18;;;;;;;3.85;1.45;;;;;;;11.19;100.00;101307.03;10577701;27;20091;-75
2021/09/29 12:18:20;;;;;;;5.63;2.53;;;;;;;11.67;100.00;101294.97;10604982;27;20039;-75
2021/09/29 12:23:23;;;;;;;4.93;2.90;;;;;;;12.17;100.00;101299.31;10604389;27;20051;-75
2021/09/29 12:38:57;;;;;;;3.65;2.50;;;;;;;12.05;100.00;101338.88;10664713;27;20534;-75
2021/09/29 12:44:12;;;;;;;5.20;2.47;;;;;;;11.96;100.00;101336.13;10650151;27;20177;-76
2021/09/29 12:49:19;;;;;;;3.85;2.05;;;;;;;11.61;100.00;101340.66;10660494;27;20521;-76
2021/09/29 12:54:22;;;;;;;3.55;2.20;;;;;;;11.81;100.00;101341.03;10647859;27;20057;-75
2021/09/29 12:59:24;;;;;;;3.28;1.90;;;;;;;11.82;100.00;101348.00;10665137;27;20043;-76
2021/09/29 13:04:25;;;;;;;3.58;1.75;;;;;;;12.05;100.00;101349.25;10664805;27;20046;-75
2021/09/29 13:09:27;;;;;;;3.45;2.00;;;;;;;12.19;100.00;101346.88;10665332;27;20039;-74
2021/09/29 13:14:31;;;;;;;6.35;1.55;;;;;;;12.42;100.00;101349.84;10665095;27;20054;-75
2021/09/29 13:19:44;;;;;;;3.10;1.65;;;;;;;12.98;100.00;101355.84;10665350;27;20043;-75
2021/09/29 13:40:29;;;;;;;2.55;1.08;;;;;;;12.42;91.88;101394.84;10621356;28;20047;-73
2021/09/29 13:45:30;;;;;;;2.08;0.52;;;;;;;12.36;89.87;101397.31;10621676;27;20489;-73
2021/09/29 13:50:32;;;;;;;1.13;0.70;;;;;;;12.47;86.26;101400.97;10620958;27;20069;-73
2021/09/29 13:55:37;;;;;;;4.35;0.80;;;;;;;12.91;85.93;101420.66;10621262;28;20163;-73
2021/09/29 14:01:09;;;;;;;2.47;0.68;;;;;;;13.30;81.50;101416.91;10627491;27;20049;-74
2021/09/29 14:32:56;;;;;;;2.30;0.75;;;;;;;13.76;69.09;101459.94;10628859;27;20096;-74
2021/09/29 14:37:58;;;;;;;1.13;0.80;;;;;;;13.87;69.81;101491.28;10609422;27;20055;-74
2021/09/29 14:42:59;;;;;;;2.63;0.88;;;;;;;13.00;74.64;101511.72;10627567;27;20240;-76
2021/09/29 14:48:01;;;;;;;3.42;0.82;;;;;;;12.71;73.45;101521.66;10626859;27;20426;-74
2021/09/29 14:53:02;;;;;;;1.17;0.50;;;;;;;11.91;76.56;101524.44;10603206;27;20050;-75
2021/09/29 14:58:04;;;;;;;2.58;0.95;;;;;;;11.66;78.42;101536.00;10599868;27;20058;-73
2021/09/29 15:03:07;;;;;;;3.42;1.02;;;;;;;11.71;81.20;101543.88;10624896;27;20482;-72
2021/09/29 15:08:09;;;;;;;3.20;1.30;;;;;;;11.72;84.20;101556.88;10625153;27;20051;-72
2021/09/29 15:13:13;;;;;;;2.10;0.75;;;;;;;11.78;85.54;101557.00;10604539;27;20058;-74
2021/09/29 15:18:23;;;;;;;4.30;0.90;;;;;;;11.51;88.14;101577.13;10611362;27;20053;-75
2021/09/29 16:00:08;;;;;;;3.15;1.40;;;;;;;9.75;97.61;101637.03;10624020;27;20462;-81
2021/09/29 16:22:25;;;;;;;2.30;1.70;;;;;;;9.76;99.41;101683.63;10624277;27;20053;-79
2021/09/29 16:37:50;;;;;;;1.70;0.80;;;;;;;9.80;100.00;101702.66;10657650;27;20409;-79
2021/09/29 16:42:54;;;;;;;1.80;0.60;;;;;;;9.69;100.00;101704.03;10665301;27;20046;-79
2021/09/29 16:47:56;;;;;;;1.10;0.80;;;;;;;9.72;100.00;101723.09;10665948;27;20057;-79
2021/09/29 16:53:07;;;;;;;1.25;0.90;;;;;;;9.66;100.00;101722.03;10645377;27;20404;-78
2021/09/29 16:58:20;;;;;;;3.70;0.95;;;;;;;9.67;100.00;101729.81;10663359;27;20047;-78
2021/09/29 17:03:23;;;;;;;2.95;1.00;;;;;;;9.65;100.00;101748.69;10661944;27;20051;-76
2021/09/29 17:08:24;;;;;;;2.85;1.02;;;;;;;9.58;100.00;101747.59;10646096;27;20068;-77
2021/09/29 17:13:36;;;;;;;3.15;1.60;;;;;;;9.56;99.35;101739.78;10664100;27;20046;-77
2021/09/29 17:18:39;;;;;;;6.03;1.20;;;;;;;9.50;100.00;101749.94;10664545;27;20133;-75
2021/09/29 17:23:42;;;;;;;1.55;0.85;;;;;;;9.52;99.58;101747.38;10663826;27;20054;-77
2021/09/29 17:28:48;;;;;;;2.92;1.00;;;;;;;9.63;99.29;101750.34;10664408;27;20047;-75
2021/09/29 17:39:23;;;;;;;3.67;1.25;;;;;;;9.65;100.00;101788.31;10673364;27;20095;-74
2021/09/29 17:55:07;;;;;;;3.20;1.65;;;;;;;9.64;100.00;101816.66;10639571;27;20417;-75
2021/09/29 18:00:12;;;;;;;3.38;1.50;;;;;;;9.64;100.00;101817.53;10627899;27;20047;-75
2021/09/29 18:05:23;;;;;;;10.00;1.70;;;;;;;9.69;100.00;101838.38;10608577;27;20059;-76
2021/09/29 18:10:27;;;;;;;4.35;1.35;;;;;;;9.71;100.00;101839.31;10617200;27;20047;-75
2021/09/29 18:15:30;;;;;;;2.88;1.20;;;;;;;9.80;98.82;101832.75;10618976;27;20054;-75
2021/09/29 18:20:32;;;;;;;4.93;1.88;;;;;;;9.67;100.00;101833.16;10627300;27;20043;-74
2021/09/29 18:25:39;;;;;;;2.60;1.25;;;;;;;9.58;100.00;101840.59;10624524;27;20483;-74
2021/09/29 18:30:43;;;;;;;3.50;1.02;;;;;;;9.49;100.00;101850.63;10623985;27;20043;-74
2021/09/29 18:35:46;;;;;;;1.65;1.17;;;;;;;9.44;100.00;101862.47;10607047;27;20054;-75
2021/09/29 18:40:48;;;;;;;1.60;1.02;;;;;;;9.44;100.00;101863.38;10665025;27;20035;-74
2021/09/29 18:45:52;;;;;;;6.57;1.83;;;;;;;9.34;100.00;101874.19;10647445;27;20038;-74
2021/09/29 18:50:55;;;;;;;4.15;1.33;;;;;;;9.46;100.00;101874.63;10668330;27;20432;-73
2021/09/29 18:56:16;;;;;;;8.23;1.98;;;;;;;9.45;100.00;101875.44;10651722;27;20444;-72
2021/09/29 19:11:58;;;;;;;2.05;1.17;;;;;;;9.35;100.00;101885.38;10663652;27;20040;-75
2021/09/29 19:16:59;;;;;;;31.58;22.73;;;;;;;9.29;100.00;101881.75;10672752;27;20055;-74
2021/09/29 19:22:01;;;;;;;7.68;6.30;;;;;;;9.39;100.00;101897.59;10657580;27;20466;-73
2021/09/29 19:27:03;;;;;;;4.00;2.90;;;;;;;9.35;100.00;101913.78;10665153;27;20074;-73
2021/09/29 19:32:06;;;;;;;4.38;2.17;;;;;;;9.33;100.00;101941.25;10666302;27;20053;-73
2021/09/29 19:37:08;;;;;;;4.88;1.45;;;;;;;9.36;100.00;101968.09;10663722;27;20055;-75
2021/09/29 19:42:10;;;;;;;4.05;1.38;;;;;;;9.48;100.00;101949.59;10664175;27;20127;-74
2021/09/29 19:47:24;;;;;;;7.32;1.67;;;;;;;9.48;100.00;101965.97;10664902;27;20058;-76
2021/09/29 19:52:55;;;;;;;2.63;1.67;;;;;;;9.35;100.00;101955.97;10667619;27;20085;-77
2021/09/29 20:08:30;;;;;;;2.40;1.65;;;;;;;9.03;100.00;101965.09;10667626;27;20053;-76
2021/09/29 20:13:36;;;;;;;2.65;1.60;;;;;;;8.95;100.00;101972.50;10666495;27;20490;-76
2021/09/29 20:18:49;;;;;;;3.97;1.60;;;;;;;8.89;100.00;101974.84;10667193;27;20050;-74
2021/09/29 20:23:51;;;;;;;4.90;2.05;;;;;;;8.78;100.00;101976.13;10666428;27;20138;-77
2021/09/29 20:28:53;;;;;;;5.53;2.20;;;;;;;8.71;100.00;101975.00;10665494;27;20078;-74
2021/09/29 20:44:17;;;;;;;2.25;1.95;;;;;;;8.53;100.00;101982.00;10622373;27;20487;-74
2021/09/29 20:49:18;;;;;;;3.28;2.15;;;;;;;8.51;100.00;101970.75;10623752;27;20078;-74
2021/09/29 20:54:20;;;;;;;10.35;2.50;;;;;;;8.53;100.00;101974.25;10622799;27;20384;-73
2021/09/29 20:59:21;;;;;;;4.55;2.25;;;;;;;8.57;100.00;101988.16;10622149;27;20043;-74
2021/09/29 21:04:24;;;;;;;2.25;2.05;;;;;;;8.57;100.00;101986.47;10621192;27;20513;-74
2021/09/29 21:09:27;;;;;;;4.10;1.85;;;;;;;8.61;100.00;102001.22;10626963;27;20071;-74
2021/09/29 21:14:37;;;;;;;4.65;1.95;;;;;;;8.59;100.00;102007.16;10630786;27;20047;-76
2021/09/29 21:19:39;;;;;;;5.40;2.47;;;;;;;8.67;100.00;101996.31;10629356;27;20047;-75
2021/09/29 21:24:40;;;;;;;6.55;1.35;;;;;;;8.73;100.00;101998.28;10630630;27;20540;-74
2021/09/29 21:29:42;;;;;;;2.42;1.40;;;;;;;8.86;100.00;102013.47;10631018;27;20401;-74
2021/09/29 21:34:45;;;;;;;2.58;1.25;;;;;;;8.87;100.00;102012.63;10629699;27;20139;-74
2021/09/29 21:39:58;;;;;;;2.75;1.25;;;;;;;8.86;100.00;102028.06;10611501;27;20058;-74
2021/09/29 22:01:14;;;;;;;2.35;1.20;;;;;;;8.79;100.00;102044.97;10629490;27;20129;-74
2021/09/29 22:32:53;;;;;;;2.60;1.88;;;;;;;8.96;100.00;102072.38;10627820;27;20058;-76
2021/09/29 22:43:28;;;;;;;2.20;1.25;;;;;;;8.95;100.00;102065.41;10670414;27;20159;-75
2021/09/29 23:04:43;;;;;;;1.90;1.67;;;;;;;8.85;100.00;102078.78;10669593;27;20137;-74
2021/09/29 23:09:50;;;;;;;2.85;1.80;;;;;;;8.75;100.00;102086.97;10670073;27;20042;-75
2021/09/29 23:36:12;;;;;;;2.67;0.88;;;;;;;8.79;100.00;102099.16;10667439;27;20062;-74
2021/09/29 23:41:13;;;;;;;3.83;1.55;;;;;;;8.70;100.00;102111.66;10649826;27;20046;-73
2021/09/29 23:46:15;;;;;;;3.67;0.98;;;;;;;8.64;100.00;102117.44;10667707;27;20051;-75
2021/09/29 23:51:17;;;;;;;3.53;1.30;;;;;;;8.77;100.00;102109.41;10667418;27;20096;-73
2021/09/29 23:56:18;;;;;;;2.28;1.23;;;;;;;8.75;100.00;102116.22;10649217;27;20103;-73
